La Grange, TX (78945)

4:44 PM CDT on August 29, 2016 (GMT -0500)
Horton Street | | Change Station

Elev 344 ft 29.92 °N, 96.87 °W | Updated 11 seconds ago

Overcast
Overcast
76.6 °F
Feels Like 78 °F
N
0.0
Wind Variable Wind from South
Gusts 0.0 mph

Today
High -- | Low -- °F
--% Chance of Precip.
Yesterday
High -- | Low -- °F
Precip. -- in
Pressure 29.91 in
Visibility 5.0 miles
Clouds Scattered Clouds 1700 ft
Scattered Clouds 2900 ft
Mostly Cloudy 6500 ft
Heat Index 78 °F
Dew Point 60 °F
Humidity 56%
Rainfall 0.30 in
Snow Depth Not available.
7:03 AM 7:52 PM
Waning Crescent, 7% visible
METAR K3T5 292135Z AUTO 08009G17KT 5SM RA SCT017 SCT029 BKN065 27/24 A2991 RMK AO2 LTG DSNT S P0002 T02680243
Pressure 29.91 in
Visibility 5.0 miles
Clouds Scattered Clouds 1700 ft
Scattered Clouds 2900 ft
Mostly Cloudy 6500 ft
Heat Index 78 °F
Dew Point 60 °F
Humidity 56%
Rainfall 0.30 in
Snow Depth Not available.
7:03 AM 7:52 PM
Waning Crescent, 7% visible
METAR K3T5 292135Z AUTO 08009G17KT 5SM RA SCT017 SCT029 BKN065 27/24 A2991 RMK AO2 LTG DSNT S P0002 T02680243

10-Day Weather Forecast

Almanac

Astronomy

Aug. 29, 2016 Rise Set
Actual Time
Civil Twilight
Nautical Twilight
Astronomical Twilight
Moon
Length of Visible Light
Length of Day
Tomorrow will be .
, % of the Moon is Illuminated

Today's Extremes

State Highs State Lows

Community

WunderPhotos

Upload Photos

1,935,690 photos uploaded!

WunderBlog® & News

Nearby

Air Quality

  Air Quality AQ Index Pollutant
Not available.

Snow Depth

Station Depth Elevation

Earthquake Activity

City Distance Mag. Time & Date
Minimum magnitude displayed is 2.5.

Coastal Water Temperatures

Place Temperature

Stations

Nearby Weather Stations

Station Location Temp. Windchill Dew Point Humidity Wind Precip. Elev Updated Type
                   

Watches & Warnings

There are currently no watches in effect.